sensor_id;sensor_type;location;lat;lon;timestamp;P1;durP1;ratioP1;P2;durP2;ratioP2
28587;SDS011;15787;49.662;10.162;2023-09-19T00:02:34;1.25;;;0.60;;
28587;SDS011;15787;49.662;10.162;2023-09-19T00:05:11;3.83;;;0.80;;
28587;SDS011;15787;49.662;10.162;2023-09-19T00:07:44;4.07;;;1.02;;
28587;SDS011;15787;49.662;10.162;2023-09-19T00:10:17;3.83;;;1.20;;
28587;SDS011;15787;49.662;10.162;2023-09-19T00:12:52;1.38;;;0.57;;
28587;SDS011;15787;49.662;10.162;2023-09-19T00:15:27;2.30;;;0.70;;
28587;SDS011;15787;49.662;10.162;2023-09-19T00:18:01;2.47;;;0.88;;
28587;SDS011;15787;49.662;10.162;2023-09-19T00:20:35;2.67;;;0.73;;
28587;SDS011;15787;49.662;10.162;2023-09-19T00:23:08;1.05;;;0.60;;
28587;SDS011;15787;49.662;10.162;2023-09-19T00:25:41;1.60;;;0.60;;
28587;SDS011;15787;49.662;10.162;2023-09-19T00:28:18;1.75;;;0.50;;
28587;SDS011;15787;49.662;10.162;2023-09-19T00:30:51;3.75;;;0.90;;
28587;SDS011;15787;49.662;10.162;2023-09-19T00:33:26;1.92;;;0.57;;
28587;SDS011;15787;49.662;10.162;2023-09-19T00:36:00;1.90;;;0.60;;
28587;SDS011;15787;49.662;10.162;2023-09-19T00:38:36;3.20;;;0.80;;
28587;SDS011;15787;49.662;10.162;2023-09-19T00:41:09;1.48;;;0.63;;
28587;SDS011;15787;49.662;10.162;2023-09-19T00:43:45;1.85;;;0.70;;
28587;SDS011;15787;49.662;10.162;2023-09-19T00:46:19;1.67;;;0.73;;
28587;SDS011;15787;49.662;10.162;2023-09-19T00:48:52;1.52;;;0.60;;
28587;SDS011;15787;49.662;10.162;2023-09-19T00:51:26;3.20;;;0.68;;
28587;SDS011;15787;49.662;10.162;2023-09-19T00:53:59;2.67;;;0.75;;
28587;SDS011;15787;49.662;10.162;2023-09-19T00:56:32;3.35;;;0.90;;
28587;SDS011;15787;49.662;10.162;2023-09-19T00:59:06;3.63;;;0.88;;
28587;SDS011;15787;49.662;10.162;2023-09-19T01:01:40;3.03;;;0.60;;
28587;SDS011;15787;49.662;10.162;2023-09-19T01:04:13;3.63;;;0.90;;
28587;SDS011;15787;49.662;10.162;2023-09-19T01:06:46;1.85;;;0.65;;
28587;SDS011;15787;49.662;10.162;2023-09-19T01:09:24;3.60;;;0.68;;
28587;SDS011;15787;49.662;10.162;2023-09-19T01:12:00;2.58;;;0.88;;
28587;SDS011;15787;49.662;10.162;2023-09-19T01:14:40;3.80;;;0.50;;
28587;SDS011;15787;49.662;10.162;2023-09-19T01:17:25;3.83;;;0.50;;
28587;SDS011;15787;49.662;10.162;2023-09-19T01:20:15;2.47;;;0.77;;
28587;SDS011;15787;49.662;10.162;2023-09-19T01:22:57;5.25;;;0.80;;
28587;SDS011;15787;49.662;10.162;2023-09-19T01:28:53;3.58;;;0.77;;
28587;SDS011;15787;49.662;10.162;2023-09-19T01:31:35;1.77;;;0.70;;
28587;SDS011;15787;49.662;10.162;2023-09-19T01:34:11;5.38;;;0.60;;
28587;SDS011;15787;49.662;10.162;2023-09-19T01:36:44;2.70;;;0.70;;
28587;SDS011;15787;49.662;10.162;2023-09-19T01:39:17;3.05;;;0.88;;
28587;SDS011;15787;49.662;10.162;2023-09-19T01:41:58;1.75;;;0.60;;
28587;SDS011;15787;49.662;10.162;2023-09-19T01:44:44;5.40;;;0.70;;
28587;SDS011;15787;49.662;10.162;2023-09-19T01:47:31;5.20;;;0.80;;
28587;SDS011;15787;49.662;10.162;2023-09-19T01:50:11;3.83;;;0.90;;
28587;SDS011;15787;49.662;10.162;2023-09-19T01:52:52;2.65;;;0.75;;
28587;SDS011;15787;49.662;10.162;2023-09-19T01:55:30;2.35;;;0.68;;
28587;SDS011;15787;49.662;10.162;2023-09-19T01:58:12;4.00;;;0.68;;
28587;SDS011;15787;49.662;10.162;2023-09-19T02:00:49;1.48;;;0.68;;
28587;SDS011;15787;49.662;10.162;2023-09-19T02:03:25;2.08;;;0.82;;
28587;SDS011;15787;49.662;10.162;2023-09-19T02:06:00;2.15;;;1.55;;
28587;SDS011;15787;49.662;10.162;2023-09-19T02:08:34;2.03;;;0.90;;
28587;SDS011;15787;49.662;10.162;2023-09-19T02:11:08;1.50;;;0.57;;
28587;SDS011;15787;49.662;10.162;2023-09-19T02:13:42;2.78;;;0.80;;
28587;SDS011;15787;49.662;10.162;2023-09-19T02:16:16;4.95;;;0.60;;
28587;SDS011;15787;49.662;10.162;2023-09-19T02:18:53;1.95;;;0.77;;
28587;SDS011;15787;49.662;10.162;2023-09-19T02:21:27;4.57;;;0.82;;
28587;SDS011;15787;49.662;10.162;2023-09-19T02:24:01;6.18;;;0.93;;
28587;SDS011;15787;49.662;10.162;2023-09-19T02:26:35;2.95;;;0.95;;
28587;SDS011;15787;49.662;10.162;2023-09-19T02:29:10;3.00;;;0.90;;
28587;SDS011;15787;49.662;10.162;2023-09-19T02:31:44;3.40;;;0.73;;
28587;SDS011;15787;49.662;10.162;2023-09-19T02:34:21;3.72;;;1.00;;
28587;SDS011;15787;49.662;10.162;2023-09-19T02:36:54;5.30;;;1.02;;
28587;SDS011;15787;49.662;10.162;2023-09-19T02:39:27;4.05;;;1.08;;
28587;SDS011;15787;49.662;10.162;2023-09-19T02:42:00;1.58;;;0.95;;
28587;SDS011;15787;49.662;10.162;2023-09-19T02:44:35;3.40;;;1.35;;
28587;SDS011;15787;49.662;10.162;2023-09-19T02:47:10;2.15;;;1.27;;
28587;SDS011;15787;49.662;10.162;2023-09-19T02:49:44;3.88;;;1.52;;
28587;SDS011;15787;49.662;10.162;2023-09-19T02:52:17;5.50;;;1.25;;
28587;SDS011;15787;49.662;10.162;2023-09-19T02:54:51;2.53;;;1.48;;
28587;SDS011;15787;49.662;10.162;2023-09-19T02:57:24;3.30;;;1.90;;
28587;SDS011;15787;49.662;10.162;2023-09-19T02:59:57;3.92;;;2.13;;
28587;SDS011;15787;49.662;10.162;2023-09-19T03:02:30;3.08;;;1.77;;
28587;SDS011;15787;49.662;10.162;2023-09-19T03:05:08;3.05;;;2.20;;
28587;SDS011;15787;49.662;10.162;2023-09-19T03:07:43;5.05;;;2.80;;
28587;SDS011;15787;49.662;10.162;2023-09-19T03:10:19;4.10;;;2.38;;
28587;SDS011;15787;49.662;10.162;2023-09-19T03:12:52;4.13;;;2.17;;
28587;SDS011;15787;49.662;10.162;2023-09-19T03:15:26;6.45;;;2.13;;
28587;SDS011;15787;49.662;10.162;2023-09-19T03:17:59;7.57;;;2.38;;
28587;SDS011;15787;49.662;10.162;2023-09-19T03:20:33;6.35;;;2.40;;
28587;SDS011;15787;49.662;10.162;2023-09-19T03:23:06;5.82;;;2.65;;
28587;SDS011;15787;49.662;10.162;2023-09-19T03:25:40;5.00;;;2.70;;
28587;SDS011;15787;49.662;10.162;2023-09-19T03:28:13;4.80;;;2.45;;
28587;SDS011;15787;49.662;10.162;2023-09-19T03:30:56;4.45;;;2.72;;
28587;SDS011;15787;49.662;10.162;2023-09-19T03:33:31;4.38;;;2.67;;
28587;SDS011;15787;49.662;10.162;2023-09-19T03:36:07;3.17;;;2.45;;
28587;SDS011;15787;49.662;10.162;2023-09-19T03:38:40;4.35;;;2.85;;
28587;SDS011;15787;49.662;10.162;2023-09-19T03:41:13;5.28;;;2.72;;
28587;SDS011;15787;49.662;10.162;2023-09-19T03:43:50;4.40;;;2.40;;
28587;SDS011;15787;49.662;10.162;2023-09-19T03:46:23;3.42;;;2.78;;
28587;SDS011;15787;49.662;10.162;2023-09-19T03:49:00;4.90;;;2.38;;
28587;SDS011;15787;49.662;10.162;2023-09-19T03:51:42;4.50;;;2.40;;
28587;SDS011;15787;49.662;10.162;2023-09-19T03:54:15;3.65;;;2.40;;
28587;SDS011;15787;49.662;10.162;2023-09-19T03:56:48;3.60;;;2.40;;
28587;SDS011;15787;49.662;10.162;2023-09-19T03:59:21;3.78;;;2.50;;
28587;SDS011;15787;49.662;10.162;2023-09-19T04:02:02;4.88;;;2.83;;
28587;SDS011;15787;49.662;10.162;2023-09-19T04:04:36;7.65;;;2.05;;
28587;SDS011;15787;49.662;10.162;2023-09-19T04:07:10;3.55;;;2.20;;
28587;SDS011;15787;49.662;10.162;2023-09-19T04:09:44;4.38;;;1.88;;
28587;SDS011;15787;49.662;10.162;2023-09-19T04:12:17;3.42;;;1.60;;
28587;SDS011;15787;49.662;10.162;2023-09-19T04:14:50;5.93;;;1.90;;
28587;SDS011;15787;49.662;10.162;2023-09-19T04:17:23;3.33;;;1.65;;
28587;SDS011;15787;49.662;10.162;2023-09-19T04:19:56;8.68;;;2.78;;
28587;SDS011;15787;49.662;10.162;2023-09-19T04:22:31;3.97;;;1.98;;
28587;SDS011;15787;49.662;10.162;2023-09-19T04:25:05;6.40;;;1.70;;
28587;SDS011;15787;49.662;10.162;2023-09-19T04:27:39;2.58;;;1.55;;
28587;SDS011;15787;49.662;10.162;2023-09-19T04:30:12;2.33;;;1.70;;
28587;SDS011;15787;49.662;10.162;2023-09-19T04:32:46;2.88;;;1.77;;
28587;SDS011;15787;49.662;10.162;2023-09-19T04:35:22;4.20;;;1.83;;
28587;SDS011;15787;49.662;10.162;2023-09-19T04:37:58;4.82;;;2.03;;
28587;SDS011;15787;49.662;10.162;2023-09-19T04:40:31;6.30;;;1.80;;
28587;SDS011;15787;49.662;10.162;2023-09-19T04:43:05;5.13;;;2.38;;
28587;SDS011;15787;49.662;10.162;2023-09-19T04:45:39;5.10;;;2.05;;
28587;SDS011;15787;49.662;10.162;2023-09-19T04:48:12;3.95;;;2.05;;
28587;SDS011;15787;49.662;10.162;2023-09-19T04:50:46;6.50;;;2.33;;
28587;SDS011;15787;49.662;10.162;2023-09-19T04:53:22;3.13;;;2.30;;
28587;SDS011;15787;49.662;10.162;2023-09-19T04:55:55;3.53;;;2.70;;
28587;SDS011;15787;49.662;10.162;2023-09-19T04:58:29;3.45;;;2.35;;
28587;SDS011;15787;49.662;10.162;2023-09-19T05:01:02;4.53;;;2.40;;
28587;SDS011;15787;49.662;10.162;2023-09-19T05:03:35;4.53;;;2.50;;
28587;SDS011;15787;49.662;10.162;2023-09-19T05:06:08;4.13;;;2.38;;
28587;SDS011;15787;49.662;10.162;2023-09-19T05:08:43;8.35;;;2.80;;
28587;SDS011;15787;49.662;10.162;2023-09-19T05:11:16;2.30;;;1.67;;
28587;SDS011;15787;49.662;10.162;2023-09-19T05:13:49;5.18;;;2.08;;
28587;SDS011;15787;49.662;10.162;2023-09-19T05:16:24;5.28;;;2.13;;
28587;SDS011;15787;49.662;10.162;2023-09-19T05:18:57;3.15;;;2.22;;
28587;SDS011;15787;49.662;10.162;2023-09-19T05:21:33;2.40;;;2.10;;
28587;SDS011;15787;49.662;10.162;2023-09-19T05:24:07;3.47;;;2.58;;
28587;SDS011;15787;49.662;10.162;2023-09-19T05:26:42;3.70;;;2.15;;
28587;SDS011;15787;49.662;10.162;2023-09-19T05:29:15;2.60;;;2.00;;
28587;SDS011;15787;49.662;10.162;2023-09-19T05:31:48;4.63;;;1.65;;
28587;SDS011;15787;49.662;10.162;2023-09-19T05:34:22;4.82;;;2.10;;
28587;SDS011;15787;49.662;10.162;2023-09-19T05:36:56;3.25;;;1.73;;
28587;SDS011;15787;49.662;10.162;2023-09-19T05:39:31;4.90;;;2.15;;
28587;SDS011;15787;49.662;10.162;2023-09-19T05:42:04;4.45;;;2.20;;
28587;SDS011;15787;49.662;10.162;2023-09-19T05:44:37;4.75;;;2.15;;
28587;SDS011;15787;49.662;10.162;2023-09-19T05:47:10;6.40;;;2.42;;
28587;SDS011;15787;49.662;10.162;2023-09-19T05:49:45;3.75;;;1.60;;
28587;SDS011;15787;49.662;10.162;2023-09-19T05:52:19;3.42;;;1.60;;
28587;SDS011;15787;49.662;10.162;2023-09-19T05:54:55;4.10;;;1.63;;
28587;SDS011;15787;49.662;10.162;2023-09-19T05:57:28;4.38;;;1.42;;
28587;SDS011;15787;49.662;10.162;2023-09-19T06:00:02;3.83;;;1.35;;
28587;SDS011;15787;49.662;10.162;2023-09-19T06:05:16;2.72;;;1.50;;
28587;SDS011;15787;49.662;10.162;2023-09-19T06:07:49;4.28;;;1.75;;
28587;SDS011;15787;49.662;10.162;2023-09-19T06:10:25;3.97;;;1.25;;
28587;SDS011;15787;49.662;10.162;2023-09-19T06:12:59;2.88;;;1.60;;
28587;SDS011;15787;49.662;10.162;2023-09-19T06:15:32;7.65;;;2.30;;
28587;SDS011;15787;49.662;10.162;2023-09-19T06:18:10;3.33;;;1.77;;
28587;SDS011;15787;49.662;10.162;2023-09-19T06:20:47;5.57;;;2.03;;
28587;SDS011;15787;49.662;10.162;2023-09-19T06:23:22;5.00;;;1.60;;
28587;SDS011;15787;49.662;10.162;2023-09-19T06:25:59;2.63;;;1.55;;
28587;SDS011;15787;49.662;10.162;2023-09-19T06:28:32;4.43;;;1.90;;
28587;SDS011;15787;49.662;10.162;2023-09-19T06:31:05;4.10;;;1.40;;
28587;SDS011;15787;49.662;10.162;2023-09-19T06:33:41;4.40;;;1.70;;
28587;SDS011;15787;49.662;10.162;2023-09-19T06:36:14;4.05;;;1.67;;
28587;SDS011;15787;49.662;10.162;2023-09-19T06:38:48;5.28;;;2.67;;
28587;SDS011;15787;49.662;10.162;2023-09-19T06:41:24;3.50;;;1.75;;
28587;SDS011;15787;49.662;10.162;2023-09-19T06:43:57;5.00;;;1.60;;
28587;SDS011;15787;49.662;10.162;2023-09-19T06:46:30;4.38;;;1.88;;
28587;SDS011;15787;49.662;10.162;2023-09-19T06:49:06;8.35;;;3.22;;
28587;SDS011;15787;49.662;10.162;2023-09-19T06:51:40;3.95;;;1.67;;
28587;SDS011;15787;49.662;10.162;2023-09-19T06:54:13;2.90;;;1.30;;
28587;SDS011;15787;49.662;10.162;2023-09-19T06:56:47;3.35;;;1.50;;
28587;SDS011;15787;49.662;10.162;2023-09-19T06:59:20;3.67;;;1.10;;
28587;SDS011;15787;49.662;10.162;2023-09-19T07:01:55;6.35;;;1.50;;
28587;SDS011;15787;49.662;10.162;2023-09-19T07:04:31;2.63;;;1.05;;
28587;SDS011;15787;49.662;10.162;2023-09-19T07:07:04;3.92;;;1.20;;
28587;SDS011;15787;49.662;10.162;2023-09-19T07:09:39;4.63;;;1.45;;
28587;SDS011;15787;49.662;10.162;2023-09-19T07:12:15;4.45;;;1.15;;
28587;SDS011;15787;49.662;10.162;2023-09-19T07:14:48;2.83;;;1.05;;
28587;SDS011;15787;49.662;10.162;2023-09-19T07:17:21;4.50;;;1.00;;
28587;SDS011;15787;49.662;10.162;2023-09-19T07:19:58;4.55;;;1.88;;
28587;SDS011;15787;49.662;10.162;2023-09-19T07:22:32;2.85;;;1.27;;
28587;SDS011;15787;49.662;10.162;2023-09-19T07:25:05;2.55;;;1.02;;
28587;SDS011;15787;49.662;10.162;2023-09-19T07:27:40;3.15;;;1.30;;
28587;SDS011;15787;49.662;10.162;2023-09-19T07:30:13;2.72;;;1.00;;
28587;SDS011;15787;49.662;10.162;2023-09-19T07:32:47;3.17;;;1.10;;
28587;SDS011;15787;49.662;10.162;2023-09-19T07:35:20;2.33;;;1.20;;
28587;SDS011;15787;49.662;10.162;2023-09-19T07:37:53;5.05;;;1.00;;
28587;SDS011;15787;49.662;10.162;2023-09-19T07:40:28;4.82;;;1.30;;
28587;SDS011;15787;49.662;10.162;2023-09-19T07:43:03;4.60;;;1.17;;
28587;SDS011;15787;49.662;10.162;2023-09-19T07:45:36;3.10;;;1.00;;
28587;SDS011;15787;49.662;10.162;2023-09-19T07:48:11;5.38;;;2.05;;
28587;SDS011;15787;49.662;10.162;2023-09-19T07:50:46;3.28;;;1.10;;
28587;SDS011;15787;49.662;10.162;2023-09-19T07:53:19;3.13;;;1.20;;
28587;SDS011;15787;49.662;10.162;2023-09-19T07:56:01;3.75;;;1.27;;
28587;SDS011;15787;49.662;10.162;2023-09-19T07:58:38;2.90;;;0.90;;
28587;SDS011;15787;49.662;10.162;2023-09-19T08:01:12;3.83;;;1.25;;
28587;SDS011;15787;49.662;10.162;2023-09-19T08:03:48;3.85;;;1.10;;
28587;SDS011;15787;49.662;10.162;2023-09-19T08:06:21;3.88;;;1.45;;
28587;SDS011;15787;49.662;10.162;2023-09-19T08:08:54;10.52;;;1.65;;
28587;SDS011;15787;49.662;10.162;2023-09-19T08:11:28;6.22;;;1.40;;
28587;SDS011;15787;49.662;10.162;2023-09-19T08:14:03;2.90;;;1.00;;
28587;SDS011;15787;49.662;10.162;2023-09-19T08:16:41;2.95;;;0.98;;
28587;SDS011;15787;49.662;10.162;2023-09-19T08:19:15;5.72;;;1.50;;
28587;SDS011;15787;49.662;10.162;2023-09-19T08:21:52;5.18;;;1.05;;
28587;SDS011;15787;49.662;10.162;2023-09-19T08:24:25;3.03;;;0.85;;
28587;SDS011;15787;49.662;10.162;2023-09-19T08:27:00;3.60;;;1.30;;
28587;SDS011;15787;49.662;10.162;2023-09-19T08:29:37;3.90;;;1.20;;
28587;SDS011;15787;49.662;10.162;2023-09-19T08:32:10;4.32;;;1.08;;
28587;SDS011;15787;49.662;10.162;2023-09-19T08:34:43;3.08;;;1.20;;
28587;SDS011;15787;49.662;10.162;2023-09-19T08:37:16;2.40;;;0.85;;
28587;SDS011;15787;49.662;10.162;2023-09-19T08:39:50;4.53;;;1.25;;
28587;SDS011;15787;49.662;10.162;2023-09-19T08:42:25;3.92;;;1.33;;
28587;SDS011;15787;49.662;10.162;2023-09-19T08:44:59;3.78;;;1.25;;
28587;SDS011;15787;49.662;10.162;2023-09-19T08:47:34;2.75;;;1.05;;
28587;SDS011;15787;49.662;10.162;2023-09-19T08:50:19;3.08;;;0.80;;
28587;SDS011;15787;49.662;10.162;2023-09-19T08:53:00;4.22;;;1.13;;
28587;SDS011;15787;49.662;10.162;2023-09-19T08:55:34;3.00;;;0.90;;
28587;SDS011;15787;49.662;10.162;2023-09-19T08:58:09;3.17;;;1.13;;
28587;SDS011;15787;49.662;10.162;2023-09-19T09:00:46;1.52;;;0.75;;
28587;SDS011;15787;49.662;10.162;2023-09-19T09:03:21;2.25;;;0.80;;
28587;SDS011;15787;49.662;10.162;2023-09-19T09:05:56;6.05;;;1.30;;
28587;SDS011;15787;49.662;10.162;2023-09-19T09:08:30;2.67;;;1.27;;
28587;SDS011;15787;49.662;10.162;2023-09-19T09:11:04;5.40;;;1.00;;
28587;SDS011;15787;49.662;10.162;2023-09-19T09:13:39;4.90;;;0.80;;
28587;SDS011;15787;49.662;10.162;2023-09-19T09:16:14;2.15;;;0.85;;
28587;SDS011;15787;49.662;10.162;2023-09-19T09:18:51;3.75;;;0.95;;
28587;SDS011;15787;49.662;10.162;2023-09-19T09:21:26;3.55;;;0.70;;
28587;SDS011;15787;49.662;10.162;2023-09-19T09:24:00;4.10;;;1.00;;
28587;SDS011;15787;49.662;10.162;2023-09-19T09:26:53;2.75;;;0.85;;
28587;SDS011;15787;49.662;10.162;2023-09-19T09:29:42;2.10;;;0.80;;
28587;SDS011;15787;49.662;10.162;2023-09-19T09:32:22;2.47;;;0.93;;
28587;SDS011;15787;49.662;10.162;2023-09-19T09:34:57;3.05;;;0.88;;
28587;SDS011;15787;49.662;10.162;2023-09-19T09:37:32;4.53;;;1.00;;
28587;SDS011;15787;49.662;10.162;2023-09-19T09:40:10;4.47;;;1.15;;
28587;SDS011;15787;49.662;10.162;2023-09-19T09:43:07;2.70;;;0.90;;
28587;SDS011;15787;49.662;10.162;2023-09-19T09:46:09;3.17;;;0.90;;
28587;SDS011;15787;49.662;10.162;2023-09-19T09:48:59;4.43;;;1.20;;
28587;SDS011;15787;49.662;10.162;2023-09-19T09:51:50;2.15;;;1.10;;
28587;SDS011;15787;49.662;10.162;2023-09-19T09:54:32;2.45;;;1.00;;
28587;SDS011;15787;49.662;10.162;2023-09-19T09:57:08;3.92;;;0.90;;
28587;SDS011;15787;49.662;10.162;2023-09-19T09:59:51;7.50;;;1.50;;
28587;SDS011;15787;49.662;10.162;2023-09-19T10:02:27;3.53;;;1.40;;
28587;SDS011;15787;49.662;10.162;2023-09-19T10:05:11;5.82;;;1.42;;
28587;SDS011;15787;49.662;10.162;2023-09-19T10:07:53;3.10;;;1.02;;
28587;SDS011;15787;49.662;10.162;2023-09-19T10:10:32;3.22;;;0.88;;
28587;SDS011;15787;49.662;10.162;2023-09-19T10:13:25;1.70;;;0.80;;
28587;SDS011;15787;49.662;10.162;2023-09-19T10:16:04;4.32;;;0.80;;
28587;SDS011;15787;49.662;10.162;2023-09-19T10:18:42;2.15;;;1.00;;
28587;SDS011;15787;49.662;10.162;2023-09-19T10:21:19;3.35;;;0.90;;
28587;SDS011;15787;49.662;10.162;2023-09-19T10:23:53;2.47;;;0.80;;
28587;SDS011;15787;49.662;10.162;2023-09-19T10:26:28;1.83;;;0.77;;
28587;SDS011;15787;49.662;10.162;2023-09-19T10:29:03;2.38;;;0.75;;
28587;SDS011;15787;49.662;10.162;2023-09-19T10:31:41;2.28;;;0.80;;
28587;SDS011;15787;49.662;10.162;2023-09-19T10:34:19;2.13;;;1.00;;
28587;SDS011;15787;49.662;10.162;2023-09-19T10:36:56;3.30;;;0.90;;
28587;SDS011;15787;49.662;10.162;2023-09-19T10:39:29;4.78;;;1.60;;
28587;SDS011;15787;49.662;10.162;2023-09-19T10:42:04;6.57;;;0.98;;
28587;SDS011;15787;49.662;10.162;2023-09-19T10:44:40;3.72;;;0.98;;
28587;SDS011;15787;49.662;10.162;2023-09-19T10:47:15;1.48;;;0.70;;
28587;SDS011;15787;49.662;10.162;2023-09-19T10:49:50;2.03;;;0.88;;
28587;SDS011;15787;49.662;10.162;2023-09-19T10:52:25;3.17;;;0.88;;
28587;SDS011;15787;49.662;10.162;2023-09-19T10:55:01;2.65;;;0.95;;
28587;SDS011;15787;49.662;10.162;2023-09-19T10:57:35;2.38;;;1.10;;
28587;SDS011;15787;49.662;10.162;2023-09-19T11:00:08;4.72;;;1.00;;
28587;SDS011;15787;49.662;10.162;2023-09-19T11:06:00;2.05;;;0.80;;
28587;SDS011;15787;49.662;10.162;2023-09-19T11:08:52;3.35;;;0.85;;
28587;SDS011;15787;49.662;10.162;2023-09-19T11:11:40;2.08;;;1.00;;
28587;SDS011;15787;49.662;10.162;2023-09-19T11:14:15;3.20;;;0.98;;
28587;SDS011;15787;49.662;10.162;2023-09-19T11:20:24;3.50;;;0.82;;
28587;SDS011;15787;49.662;10.162;2023-09-19T11:23:20;2.95;;;0.80;;
28587;SDS011;15787;49.662;10.162;2023-09-19T11:25:59;2.85;;;1.40;;
28587;SDS011;15787;49.662;10.162;2023-09-19T11:28:34;3.10;;;0.95;;
28587;SDS011;15787;49.662;10.162;2023-09-19T11:34:45;4.55;;;0.90;;
28587;SDS011;15787;49.662;10.162;2023-09-19T11:40:45;2.53;;;0.80;;
28587;SDS011;15787;49.662;10.162;2023-09-19T11:43:32;2.42;;;0.77;;
28587;SDS011;15787;49.662;10.162;2023-09-19T11:46:08;4.57;;;0.90;;
28587;SDS011;15787;49.662;10.162;2023-09-19T11:48:42;3.13;;;0.68;;
28587;SDS011;15787;49.662;10.162;2023-09-19T11:51:17;3.88;;;1.00;;
28587;SDS011;15787;49.662;10.162;2023-09-19T11:53:54;5.82;;;1.42;;
28587;SDS011;15787;49.662;10.162;2023-09-19T11:56:28;3.70;;;0.85;;
28587;SDS011;15787;49.662;10.162;2023-09-19T11:59:04;4.13;;;0.70;;
28587;SDS011;15787;49.662;10.162;2023-09-19T12:01:38;4.65;;;0.80;;
28587;SDS011;15787;49.662;10.162;2023-09-19T12:04:21;2.40;;;0.85;;
28587;SDS011;15787;49.662;10.162;2023-09-19T12:07:07;3.88;;;0.75;;
28587;SDS011;15787;49.662;10.162;2023-09-19T12:09:48;4.20;;;0.88;;
28587;SDS011;15787;49.662;10.162;2023-09-19T12:12:23;2.63;;;1.05;;
28587;SDS011;15787;49.662;10.162;2023-09-19T12:15:01;3.40;;;0.95;;
28587;SDS011;15787;49.662;10.162;2023-09-19T12:17:35;4.15;;;0.82;;
28587;SDS011;15787;49.662;10.162;2023-09-19T12:20:08;3.13;;;0.85;;
28587;SDS011;15787;49.662;10.162;2023-09-19T12:22:45;5.07;;;1.15;;
28587;SDS011;15787;49.662;10.162;2023-09-19T12:25:18;3.90;;;0.70;;
28587;SDS011;15787;49.662;10.162;2023-09-19T12:27:53;4.40;;;0.90;;
28587;SDS011;15787;49.662;10.162;2023-09-19T12:30:28;4.63;;;1.00;;
28587;SDS011;15787;49.662;10.162;2023-09-19T12:33:04;3.67;;;0.85;;
28587;SDS011;15787;49.662;10.162;2023-09-19T12:35:38;6.13;;;1.48;;
28587;SDS011;15787;49.662;10.162;2023-09-19T12:38:21;1.33;;;0.68;;
28587;SDS011;15787;49.662;10.162;2023-09-19T12:40:56;3.13;;;0.82;;
28587;SDS011;15787;49.662;10.162;2023-09-19T12:43:30;3.38;;;0.90;;
28587;SDS011;15787;49.662;10.162;2023-09-19T12:46:06;2.00;;;0.70;;
28587;SDS011;15787;49.662;10.162;2023-09-19T12:48:39;4.43;;;0.73;;
28587;SDS011;15787;49.662;10.162;2023-09-19T12:51:15;3.40;;;1.23;;
28587;SDS011;15787;49.662;10.162;2023-09-19T12:53:56;3.58;;;0.77;;
28587;SDS011;15787;49.662;10.162;2023-09-19T12:56:30;2.90;;;0.70;;
28587;SDS011;15787;49.662;10.162;2023-09-19T12:59:12;3.58;;;0.90;;
28587;SDS011;15787;49.662;10.162;2023-09-19T13:01:47;5.75;;;0.60;;
28587;SDS011;15787;49.662;10.162;2023-09-19T13:04:37;3.53;;;1.35;;
28587;SDS011;15787;49.662;10.162;2023-09-19T13:10:15;2.75;;;0.80;;
28587;SDS011;15787;49.662;10.162;2023-09-19T13:12:48;3.40;;;0.80;;
28587;SDS011;15787;49.662;10.162;2023-09-19T13:15:21;2.85;;;0.70;;
28587;SDS011;15787;49.662;10.162;2023-09-19T13:17:58;3.70;;;1.02;;
28587;SDS011;15787;49.662;10.162;2023-09-19T13:20:34;2.55;;;0.63;;
28587;SDS011;15787;49.662;10.162;2023-09-19T13:23:25;2.13;;;0.80;;
28587;SDS011;15787;49.662;10.162;2023-09-19T13:25:59;2.35;;;0.80;;
28587;SDS011;15787;49.662;10.162;2023-09-19T13:28:33;2.83;;;0.80;;
28587;SDS011;15787;49.662;10.162;2023-09-19T13:31:07;2.72;;;0.75;;
28587;SDS011;15787;49.662;10.162;2023-09-19T13:33:44;3.88;;;1.77;;
28587;SDS011;15787;49.662;10.162;2023-09-19T13:36:18;3.55;;;0.77;;
28587;SDS011;15787;49.662;10.162;2023-09-19T13:38:51;2.15;;;0.80;;
28587;SDS011;15787;49.662;10.162;2023-09-19T13:41:24;4.05;;;0.80;;
28587;SDS011;15787;49.662;10.162;2023-09-19T13:43:57;3.90;;;0.85;;
28587;SDS011;15787;49.662;10.162;2023-09-19T13:46:30;2.40;;;0.80;;
28587;SDS011;15787;49.662;10.162;2023-09-19T13:49:08;7.13;;;0.90;;
28587;SDS011;15787;49.662;10.162;2023-09-19T13:51:41;2.55;;;0.70;;
28587;SDS011;15787;49.662;10.162;2023-09-19T13:54:16;3.10;;;0.90;;
28587;SDS011;15787;49.662;10.162;2023-09-19T13:56:49;3.10;;;1.15;;
28587;SDS011;15787;49.662;10.162;2023-09-19T13:59:22;6.03;;;0.93;;
28587;SDS011;15787;49.662;10.162;2023-09-19T14:01:56;5.78;;;0.80;;
28587;SDS011;15787;49.662;10.162;2023-09-19T14:04:31;1.63;;;0.73;;
28587;SDS011;15787;49.662;10.162;2023-09-19T14:07:05;2.85;;;0.70;;
28587;SDS011;15787;49.662;10.162;2023-09-19T14:09:38;3.67;;;0.70;;
28587;SDS011;15787;49.662;10.162;2023-09-19T14:12:11;2.97;;;0.85;;
28587;SDS011;15787;49.662;10.162;2023-09-19T14:14:45;4.85;;;1.05;;
28587;SDS011;15787;49.662;10.162;2023-09-19T14:17:17;1.45;;;0.77;;
28587;SDS011;15787;49.662;10.162;2023-09-19T14:19:52;2.00;;;0.93;;
28587;SDS011;15787;49.662;10.162;2023-09-19T14:22:25;2.50;;;0.70;;
28587;SDS011;15787;49.662;10.162;2023-09-19T14:24:57;2.97;;;0.82;;
28587;SDS011;15787;49.662;10.162;2023-09-19T14:27:31;5.63;;;1.30;;
28587;SDS011;15787;49.662;10.162;2023-09-19T14:30:05;2.63;;;0.90;;
28587;SDS011;15787;49.662;10.162;2023-09-19T14:32:39;3.53;;;0.80;;
28587;SDS011;15787;49.662;10.162;2023-09-19T14:35:14;2.50;;;1.00;;
28587;SDS011;15787;49.662;10.162;2023-09-19T14:37:50;2.00;;;0.80;;
28587;SDS011;15787;49.662;10.162;2023-09-19T14:40:23;3.97;;;0.80;;
28587;SDS011;15787;49.662;10.162;2023-09-19T14:42:57;3.83;;;0.80;;
28587;SDS011;15787;49.662;10.162;2023-09-19T14:45:30;2.53;;;0.57;;
28587;SDS011;15787;49.662;10.162;2023-09-19T14:48:10;6.65;;;1.55;;
28587;SDS011;15787;49.662;10.162;2023-09-19T14:50:52;5.90;;;1.10;;
28587;SDS011;15787;49.662;10.162;2023-09-19T14:56:04;2.30;;;0.85;;
28587;SDS011;15787;49.662;10.162;2023-09-19T14:58:40;4.10;;;0.77;;
28587;SDS011;15787;49.662;10.162;2023-09-19T15:01:14;2.30;;;0.70;;
28587;SDS011;15787;49.662;10.162;2023-09-19T15:03:47;2.08;;;0.77;;
28587;SDS011;15787;49.662;10.162;2023-09-19T15:06:22;3.40;;;0.93;;
28587;SDS011;15787;49.662;10.162;2023-09-19T15:08:59;7.22;;;1.40;;
28587;SDS011;15787;49.662;10.162;2023-09-19T15:11:34;8.60;;;0.85;;
28587;SDS011;15787;49.662;10.162;2023-09-19T15:14:07;2.00;;;0.90;;
28587;SDS011;15787;49.662;10.162;2023-09-19T15:16:41;3.80;;;1.08;;
28587;SDS011;15787;49.662;10.162;2023-09-19T15:19:15;1.60;;;0.50;;
28587;SDS011;15787;49.662;10.162;2023-09-19T15:21:50;2.28;;;0.85;;
28587;SDS011;15787;49.662;10.162;2023-09-19T15:24:23;1.75;;;0.63;;
28587;SDS011;15787;49.662;10.162;2023-09-19T15:26:57;3.97;;;0.85;;
28587;SDS011;15787;49.662;10.162;2023-09-19T15:29:30;1.88;;;0.93;;
28587;SDS011;15787;49.662;10.162;2023-09-19T15:32:03;3.97;;;0.88;;
28587;SDS011;15787;49.662;10.162;2023-09-19T15:34:37;6.45;;;0.95;;
28587;SDS011;15787;49.662;10.162;2023-09-19T15:37:11;4.18;;;1.48;;
28587;SDS011;15787;49.662;10.162;2023-09-19T15:39:44;4.55;;;0.73;;
28587;SDS011;15787;49.662;10.162;2023-09-19T15:42:18;6.88;;;1.38;;
28587;SDS011;15787;49.662;10.162;2023-09-19T15:44:51;3.90;;;1.25;;
28587;SDS011;15787;49.662;10.162;2023-09-19T15:47:26;3.05;;;0.70;;
28587;SDS011;15787;49.662;10.162;2023-09-19T15:50:01;3.75;;;0.80;;